Time;durP1;ratioP1;P1;durP2;ratioP2;P2;SDS_P1;SDS_P2;PMS_P1;PMS_P2;Temp;Humidity;BMP_temperature;BMP_pressure;BME280_temperature;BME280_humidity;BME280_pressure;Samples;Min_cycle;Max_cycle;Signal;HPM_P1;HPM_P2
2023/05/24 00:00:15;;;;;;;;;;;13.90;99.90;;;;;;5035912;28;19932;-66
2023/05/24 00:02:46;;;;;;;;;;;13.80;99.90;;;;;;5040727;28;20435;-65
2023/05/24 00:05:18;;;;;;;;;;;13.80;99.90;;;;;;5041229;28;19936;-65
2023/05/24 00:07:50;;;;;;;;;;;13.70;99.90;;;;;;5043276;28;19925;-65
2023/05/24 00:10:22;;;;;;;;;;;13.80;99.90;;;;;;5045516;28;19933;-65
2023/05/24 00:12:48;;;;;;;;;;;13.80;99.90;;;;;;5047484;28;19925;-65
2023/05/24 00:15:15;;;;;;;;;;;13.80;99.90;;;;;;5044698;28;19948;-66
2023/05/24 00:17:47;;;;;;;;;;;13.80;99.90;;;;;;5042752;28;20637;-65
2023/05/24 00:20:19;;;;;;;;;;;13.90;99.90;;;;;;5039472;28;19925;-65
2023/05/24 00:22:51;;;;;;;;;;;13.90;99.90;;;;;;5040489;28;20027;-65
2023/05/24 00:25:23;;;;;;;;;;;13.90;99.90;;;;;;5049363;28;19929;-65
2023/05/24 00:27:50;;;;;;;;;;;13.80;99.90;;;;;;5036668;28;19935;-65
2023/05/24 00:30:17;;;;;;;;;;;13.80;99.90;;;;;;5033001;28;19929;-65
2023/05/24 00:32:48;;;;;;;;;;;13.80;99.90;;;;;;5034932;28;19931;-65
2023/05/24 00:35:15;;;;;;;;;;;13.80;99.90;;;;;;5036044;28;19956;-65
2023/05/24 00:37:47;;;;;;;;;;;13.70;99.90;;;;;;5040661;28;19925;-66
2023/05/24 00:40:19;;;;;;;;;;;13.70;99.90;;;;;;5040822;28;20411;-65
2023/05/24 00:42:50;;;;;;;;;;;13.70;99.90;;;;;;5042693;28;19960;-66
2023/05/24 00:45:17;;;;;;;;;;;13.70;99.90;;;;;;5044610;28;20023;-67
2023/05/24 00:47:49;;;;;;;;;;;13.60;99.90;;;;;;5046765;28;19925;-66
2023/05/24 00:50:16;;;;;;;;;;;13.60;99.90;;;;;;5048916;28;20016;-65
2023/05/24 00:52:48;;;;;;;;;;;13.60;99.90;;;;;;5050885;28;19929;-65
2023/05/24 00:55:20;;;;;;;;;;;13.60;99.90;;;;;;5050682;28;19931;-65
2023/05/24 00:57:54;;;;;;;;;;;13.60;99.90;;;;;;5049654;28;20380;-66
2023/05/24 01:00:26;;;;;;;;;;;13.60;99.90;;;;;;5046599;28;19929;-65
2023/05/24 01:02:59;;;;;;;;;;;13.60;99.90;;;;;;5024441;28;19929;-65
2023/05/24 01:05:32;;;;;;;;;;;13.60;99.90;;;;;;5039562;28;19936;-65
2023/05/24 01:08:04;;;;;;;;;;;13.60;99.90;;;;;;5040348;28;20013;-65
2023/05/24 01:10:52;;;;;;;;;;;13.60;99.90;;;;;;5038724;28;19936;-66
2023/05/24 01:13:54;;;;;;;;;;;13.50;99.90;;;;;;5037477;28;20013;-65
2023/05/24 01:16:39;;;;;;;;;;;13.50;99.90;;;;;;5039389;28;20307;-65
2023/05/24 01:19:32;;;;;;;;;;;13.50;99.90;;;;;;5050219;28;20297;-65
2023/05/24 01:22:39;;;;;;;;;;;13.40;99.90;;;;;;5047861;28;19931;-65
2023/05/24 01:25:16;;;;;;;;;;;13.40;99.90;;;;;;4970523;28;20311;-65
2023/05/24 01:27:49;;;;;;;;;;;13.30;99.90;;;;;;5031762;28;19929;-65
2023/05/24 01:30:23;;;;;;;;;;;13.30;99.90;;;;;;5041539;28;19936;-65
2023/05/24 01:32:55;;;;;;;;;;;13.30;99.90;;;;;;5042092;28;19960;-65
2023/05/24 01:35:27;;;;;;;;;;;13.20;99.90;;;;;;5026563;28;20245;-65
2023/05/24 01:37:58;;;;;;;;;;;13.20;99.90;;;;;;5043523;28;20312;-65
2023/05/24 01:40:30;;;;;;;;;;;13.20;99.90;;;;;;5047385;28;19928;-66
2023/05/24 01:43:11;;;;;;;;;;;13.20;99.90;;;;;;5043162;28;19933;-65
2023/05/24 01:45:54;;;;;;;;;;;13.10;99.90;;;;;;5043332;28;20576;-65
2023/05/24 01:48:33;;;;;;;;;;;13.10;99.90;;;;;;5034540;28;19947;-65
2023/05/24 01:51:06;;;;;;;;;;;13.10;99.90;;;;;;5040424;28;19925;-65
2023/05/24 01:53:45;;;;;;;;;;;13.10;99.90;;;;;;5043842;28;19936;-66
2023/05/24 01:56:14;;;;;;;;;;;13.10;99.90;;;;;;5040138;28;20017;-65
2023/05/24 01:58:49;;;;;;;;;;;13.10;99.90;;;;;;5031810;28;19925;-65
2023/05/24 02:01:21;;;;;;;;;;;13.00;99.90;;;;;;5049196;28;20011;-65
2023/05/24 02:03:53;;;;;;;;;;;13.00;99.90;;;;;;5044175;28;19936;-65
2023/05/24 02:06:25;;;;;;;;;;;12.90;99.90;;;;;;5027543;28;19925;-65
2023/05/24 02:08:57;;;;;;;;;;;12.90;99.90;;;;;;5044213;28;19940;-65
2023/05/24 02:11:29;;;;;;;;;;;12.90;99.90;;;;;;5047263;28;19931;-65
2023/05/24 02:14:00;;;;;;;;;;;12.90;99.90;;;;;;5048536;28;19935;-65
2023/05/24 02:16:29;;;;;;;;;;;12.90;99.90;;;;;;5044562;28;19968;-65
2023/05/24 02:18:56;;;;;;;;;;;12.90;99.90;;;;;;5042142;28;19965;-66
2023/05/24 02:21:24;;;;;;;;;;;12.80;99.90;;;;;;5043068;28;19980;-65
2023/05/24 02:23:55;;;;;;;;;;;12.90;99.90;;;;;;5040403;28;19932;-65
2023/05/24 02:26:22;;;;;;;;;;;12.90;99.90;;;;;;5030992;28;20324;-66
2023/05/24 02:28:54;;;;;;;;;;;12.90;99.90;;;;;;5019350;28;20003;-65
2023/05/24 02:31:27;;;;;;;;;;;12.90;99.90;;;;;;5042943;28;19965;-65
2023/05/24 02:33:54;;;;;;;;;;;12.90;99.90;;;;;;5031086;28;19931;-65
2023/05/24 02:36:26;;;;;;;;;;;12.80;99.90;;;;;;5033448;28;20355;-65
2023/05/24 02:38:58;;;;;;;;;;;12.80;99.90;;;;;;5042530;28;19971;-65
2023/05/24 02:41:25;;;;;;;;;;;12.80;99.90;;;;;;5041986;28;19929;-65
2023/05/24 02:43:57;;;;;;;;;;;12.80;99.90;;;;;;5037724;28;19931;-65
2023/05/24 02:46:28;;;;;;;;;;;12.80;99.90;;;;;;5040253;28;19980;-66
2023/05/24 02:49:00;;;;;;;;;;;12.70;99.90;;;;;;5026102;28;20453;-65
2023/05/24 02:51:32;;;;;;;;;;;12.70;99.90;;;;;;5043866;28;19924;-65
2023/05/24 02:54:04;;;;;;;;;;;12.70;99.90;;;;;;5045845;28;19929;-65
2023/05/24 02:56:36;;;;;;;;;;;12.60;99.90;;;;;;5050264;28;20380;-65
2023/05/24 02:59:08;;;;;;;;;;;12.50;99.90;;;;;;5048701;28;20035;-65
2023/05/24 03:01:39;;;;;;;;;;;12.50;99.90;;;;;;5050907;28;19929;-65
2023/05/24 03:04:11;;;;;;;;;;;12.50;99.90;;;;;;5044649;28;20308;-65
2023/05/24 03:06:43;;;;;;;;;;;12.50;99.90;;;;;;5043224;28;20307;-65
2023/05/24 03:09:11;;;;;;;;;;;12.40;99.90;;;;;;5027571;28;19936;-65
2023/05/24 03:11:43;;;;;;;;;;;12.40;99.90;;;;;;5050925;28;19925;-66
2023/05/24 03:14:16;;;;;;;;;;;12.30;99.90;;;;;;5046185;28;19929;-65
2023/05/24 03:16:48;;;;;;;;;;;12.30;99.90;;;;;;5046506;28;19929;-66
2023/05/24 03:19:20;;;;;;;;;;;12.20;99.90;;;;;;5050265;28;20355;-65
2023/05/24 03:21:47;;;;;;;;;;;12.20;99.90;;;;;;5040236;28;20308;-65
2023/05/24 03:24:20;;;;;;;;;;;12.10;99.90;;;;;;5045296;28;20451;-66
2023/05/24 03:26:52;;;;;;;;;;;12.10;99.90;;;;;;5048755;28;20007;-71
2023/05/24 03:29:24;;;;;;;;;;;12.10;99.90;;;;;;5038724;28;20270;-65
2023/05/24 03:31:56;;;;;;;;;;;12.00;99.90;;;;;;5040319;28;19925;-65
2023/05/24 03:34:23;;;;;;;;;;;12.30;99.90;;;;;;5039951;28;20011;-65
2023/05/24 03:36:55;;;;;;;;;;;12.30;99.90;;;;;;5040562;28;19925;-65
2023/05/24 03:39:27;;;;;;;;;;;12.20;99.90;;;;;;5044553;28;19976;-65
2023/05/24 03:42:20;;;;;;;;;;;12.10;99.90;;;;;;5038829;28;20392;-65
2023/05/24 03:44:51;;;;;;;;;;;12.00;99.90;;;;;;5038289;28;19936;-65
2023/05/24 03:47:23;;;;;;;;;;;12.00;99.90;;;;;;5050187;28;20365;-66
2023/05/24 03:49:55;;;;;;;;;;;11.90;99.90;;;;;;5051628;28;20037;-65
2023/05/24 03:52:22;;;;;;;;;;;11.90;99.90;;;;;;5049409;28;20314;-65
2023/05/24 03:54:49;;;;;;;;;;;12.00;99.90;;;;;;5045319;28;20019;-65
2023/05/24 03:57:16;;;;;;;;;;;11.90;99.90;;;;;;5040034;28;19994;-65
2023/05/24 03:59:43;;;;;;;;;;;11.90;99.90;;;;;;5042289;28;19929;-65
2023/05/24 04:02:14;;;;;;;;;;;11.90;99.90;;;;;;5032640;28;19933;-65
2023/05/24 04:04:46;;;;;;;;;;;11.90;99.90;;;;;;5050037;28;20300;-65
2023/05/24 04:07:18;;;;;;;;;;;11.90;99.90;;;;;;5047103;28;19925;-66
2023/05/24 04:09:50;;;;;;;;;;;11.90;99.90;;;;;;5036647;28;19929;-67
2023/05/24 04:12:17;;;;;;;;;;;11.90;99.90;;;;;;5033193;28;19968;-66
2023/05/24 04:14:50;;;;;;;;;;;11.90;99.90;;;;;;5035880;28;19925;-66
2023/05/24 04:17:25;;;;;;;;;;;11.90;99.90;;;;;;5047666;28;19924;-65
2023/05/24 04:19:57;;;;;;;;;;;11.80;99.90;;;;;;5050643;28;20035;-66
2023/05/24 04:22:29;;;;;;;;;;;11.70;99.90;;;;;;5028168;28;19924;-66
2023/05/24 04:24:56;;;;;;;;;;;11.70;99.90;;;;;;5045342;28;19955;-65
2023/05/24 04:27:30;;;;;;;;;;;11.80;99.90;;;;;;5043740;28;20320;-65
2023/05/24 04:30:02;;;;;;;;;;;11.80;99.90;;;;;;5043018;28;19960;-66
2023/05/24 04:32:35;;;;;;;;;;;11.80;99.90;;;;;;5045520;28;20047;-65
2023/05/24 04:35:08;;;;;;;;;;;11.80;99.90;;;;;;5040846;28;19973;-65
2023/05/24 04:37:40;;;;;;;;;;;11.70;99.90;;;;;;5051491;28;20389;-65
2023/05/24 04:40:07;;;;;;;;;;;11.70;99.90;;;;;;5051400;28;19931;-65
2023/05/24 04:42:39;;;;;;;;;;;11.70;99.90;;;;;;5046768;28;19933;-65
2023/05/24 04:45:10;;;;;;;;;;;11.70;99.90;;;;;;5046212;28;19937;-65
2023/05/24 04:47:42;;;;;;;;;;;11.70;99.90;;;;;;5044208;28;19936;-66
2023/05/24 04:50:15;;;;;;;;;;;11.70;99.90;;;;;;5046014;28;19933;-66
2023/05/24 04:52:46;;;;;;;;;;;11.80;99.90;;;;;;5046752;28;20312;-65
2023/05/24 04:55:18;;;;;;;;;;;11.80;99.90;;;;;;5041090;28;20424;-65
2023/05/24 04:57:49;;;;;;;;;;;11.80;99.90;;;;;;5035602;28;19925;-65
2023/05/24 05:00:21;;;;;;;;;;;11.70;99.90;;;;;;5038010;28;19929;-65
2023/05/24 05:02:53;;;;;;;;;;;11.70;99.90;;;;;;5040190;28;19929;-65
2023/05/24 05:05:20;;;;;;;;;;;11.80;99.90;;;;;;5038208;28;20040;-65
2023/05/24 05:07:47;;;;;;;;;;;11.80;99.90;;;;;;5041129;28;19925;-65
2023/05/24 05:10:18;;;;;;;;;;;11.80;99.90;;;;;;5040223;28;19925;-65
2023/05/24 05:12:50;;;;;;;;;;;11.80;99.90;;;;;;5046414;28;19932;-66
2023/05/24 05:15:23;;;;;;;;;;;11.80;99.90;;;;;;5044000;28;19924;-65
2023/05/24 05:17:54;;;;;;;;;;;11.70;99.90;;;;;;5042859;28;20024;-66
2023/05/24 05:20:26;;;;;;;;;;;11.70;99.90;;;;;;5044000;28;19929;-65
2023/05/24 05:22:58;;;;;;;;;;;11.70;99.90;;;;;;5045801;28;20364;-65
2023/05/24 05:25:25;;;;;;;;;;;11.70;99.90;;;;;;5041739;28;20011;-65
2023/05/24 05:27:57;;;;;;;;;;;11.70;99.90;;;;;;5044399;28;19968;-65
2023/05/24 05:30:29;;;;;;;;;;;11.80;99.90;;;;;;5037145;28;19933;-65
2023/05/24 05:33:00;;;;;;;;;;;11.80;99.90;;;;;;5038678;28;19932;-65
2023/05/24 05:35:27;;;;;;;;;;;11.80;99.90;;;;;;5042404;28;20027;-65
2023/05/24 05:37:54;;;;;;;;;;;11.80;99.90;;;;;;5041743;28;19929;-65
2023/05/24 05:40:25;;;;;;;;;;;11.80;99.90;;;;;;5044792;28;19932;-65
2023/05/24 05:42:52;;;;;;;;;;;11.90;99.90;;;;;;5048705;28;19953;-65
2023/05/24 05:45:24;;;;;;;;;;;11.90;99.90;;;;;;5045075;28;19929;-65
2023/05/24 05:47:56;;;;;;;;;;;11.90;99.90;;;;;;5040726;28;19925;-65
2023/05/24 05:50:23;;;;;;;;;;;11.90;99.90;;;;;;5033574;28;20358;-65
2023/05/24 05:52:49;;;;;;;;;;;11.80;99.90;;;;;;5040703;28;19989;-65
2023/05/24 05:55:16;;;;;;;;;;;11.90;99.90;;;;;;5033854;28;19931;-65
2023/05/24 05:57:43;;;;;;;;;;;11.80;99.90;;;;;;5034993;28;19931;-65
2023/05/24 06:00:10;;;;;;;;;;;11.80;99.90;;;;;;5042848;28;19932;-65
2023/05/24 06:02:41;;;;;;;;;;;11.80;99.90;;;;;;5043360;28;19928;-65
2023/05/24 06:05:13;;;;;;;;;;;11.80;99.90;;;;;;5046348;28;20023;-65
2023/05/24 06:07:46;;;;;;;;;;;11.90;99.90;;;;;;5040829;28;19931;-65
2023/05/24 06:10:17;;;;;;;;;;;11.90;99.90;;;;;;5041056;28;19951;-65
2023/05/24 06:12:49;;;;;;;;;;;12.00;99.90;;;;;;5049233;28;19932;-65
2023/05/24 06:15:21;;;;;;;;;;;12.00;99.90;;;;;;5036738;28;19972;-65
2023/05/24 06:17:54;;;;;;;;;;;12.10;99.90;;;;;;5029839;28;19929;-65
2023/05/24 06:20:25;;;;;;;;;;;12.20;99.90;;;;;;5037293;28;19925;-65
2023/05/24 06:22:57;;;;;;;;;;;12.30;99.90;;;;;;5041941;28;20032;-65
2023/05/24 06:25:31;;;;;;;;;;;12.40;99.90;;;;;;5039549;28;20304;-65
2023/05/24 06:27:58;;;;;;;;;;;12.50;99.90;;;;;;5039374;28;19935;-65
2023/05/24 06:30:32;;;;;;;;;;;12.60;99.90;;;;;;5040623;28;20381;-65
2023/05/24 06:33:03;;;;;;;;;;;12.70;99.90;;;;;;5038488;28;20393;-66
2023/05/24 06:35:35;;;;;;;;;;;12.70;99.90;;;;;;5044803;28;19952;-65
2023/05/24 06:38:02;;;;;;;;;;;12.80;99.90;;;;;;5034655;28;19925;-65
2023/05/24 06:40:34;;;;;;;;;;;13.00;99.90;;;;;;5016166;28;20028;-66
2023/05/24 06:43:06;;;;;;;;;;;13.10;99.90;;;;;;5031805;28;19925;-65
2023/05/24 06:45:39;;;;;;;;;;;13.10;99.90;;;;;;5033495;28;19929;-65
2023/05/24 06:48:11;;;;;;;;;;;13.20;99.90;;;;;;5047021;28;19963;-65
2023/05/24 06:50:44;;;;;;;;;;;13.30;99.90;;;;;;5044959;28;19925;-65
2023/05/24 06:53:16;;;;;;;;;;;13.30;99.90;;;;;;5038587;28;19928;-66
2023/05/24 06:55:48;;;;;;;;;;;13.50;99.90;;;;;;5041842;28;19964;-65
2023/05/24 06:58:16;;;;;;;;;;;13.50;99.90;;;;;;5043966;28;19925;-65
2023/05/24 07:00:49;;;;;;;;;;;13.60;99.90;;;;;;5045185;28;19928;-65
2023/05/24 07:03:15;;;;;;;;;;;13.60;99.90;;;;;;5047720;28;20389;-65
2023/05/24 07:05:47;;;;;;;;;;;13.50;99.90;;;;;;5048640;28;19936;-65
2023/05/24 07:08:19;;;;;;;;;;;13.40;99.90;;;;;;5031894;28;19964;-65
2023/05/24 07:10:46;;;;;;;;;;;13.30;99.90;;;;;;5032593;28;19979;-66
2023/05/24 07:13:17;;;;;;;;;;;13.20;99.90;;;;;;5031413;28;19926;-65
2023/05/24 07:15:49;;;;;;;;;;;13.00;99.90;;;;;;5031254;28;19931;-65
2023/05/24 07:18:21;;;;;;;;;;;12.90;99.90;;;;;;5031747;28;20302;-65
2023/05/24 07:20:48;;;;;;;;;;;12.80;99.90;;;;;;5043171;28;19975;-65
2023/05/24 07:23:19;;;;;;;;;;;12.90;99.90;;;;;;5042618;28;20451;-66
2023/05/24 07:25:51;;;;;;;;;;;12.80;99.90;;;;;;5036230;28;20321;-66
2023/05/24 07:28:23;;;;;;;;;;;12.80;99.90;;;;;;5033897;28;19932;-65
2023/05/24 07:30:55;;;;;;;;;;;12.90;99.90;;;;;;5032307;28;19932;-66
2023/05/24 07:33:22;;;;;;;;;;;12.80;99.90;;;;;;5031825;28;20023;-65
2023/05/24 07:35:54;;;;;;;;;;;12.90;99.90;;;;;;5032560;28;20028;-65
2023/05/24 07:38:21;;;;;;;;;;;12.90;99.90;;;;;;5035437;28;19972;-65
2023/05/24 07:40:53;;;;;;;;;;;13.00;99.90;;;;;;5036529;28;20027;-65
2023/05/24 07:43:25;;;;;;;;;;;13.10;99.90;;;;;;5041947;28;20019;-66
2023/05/24 07:45:59;;;;;;;;;;;13.10;99.90;;;;;;5043274;28;20077;-65
2023/05/24 07:48:31;;;;;;;;;;;13.10;99.90;;;;;;5046891;28;19924;-65
2023/05/24 07:51:03;;;;;;;;;;;13.10;99.90;;;;;;5048056;28;20541;-66
2023/05/24 07:53:36;;;;;;;;;;;13.00;99.90;;;;;;5035704;28;20389;-65
2023/05/24 07:56:08;;;;;;;;;;;12.90;99.90;;;;;;5051961;28;19975;-65
2023/05/24 07:58:35;;;;;;;;;;;12.80;99.90;;;;;;5051811;28;19931;-65
2023/05/24 08:01:02;;;;;;;;;;;12.70;99.90;;;;;;5049938;28;19929;-65
2023/05/24 08:03:34;;;;;;;;;;;12.70;99.90;;;;;;5035315;28;19924;-65
2023/05/24 08:06:01;;;;;;;;;;;12.80;99.90;;;;;;5044874;28;20311;-65
2023/05/24 08:08:34;;;;;;;;;;;12.90;99.90;;;;;;5041300;28;19932;-65
2023/05/24 08:11:06;;;;;;;;;;;12.90;99.90;;;;;;5044881;28;19925;-65
2023/05/24 08:13:33;;;;;;;;;;;13.00;99.90;;;;;;5046434;28;19931;-66
2023/05/24 08:16:05;;;;;;;;;;;13.10;99.90;;;;;;5043882;28;19925;-65
2023/05/24 08:18:33;;;;;;;;;;;13.10;99.90;;;;;;5036949;28;19932;-65
2023/05/24 08:21:05;;;;;;;;;;;13.10;99.90;;;;;;5049377;28;19976;-65
2023/05/24 08:23:37;;;;;;;;;;;13.20;99.90;;;;;;5039828;28;19932;-65
2023/05/24 08:26:03;;;;;;;;;;;13.20;99.90;;;;;;5036602;28;20305;-65
2023/05/24 08:28:30;;;;;;;;;;;13.30;99.90;;;;;;5042337;28;19929;-66
2023/05/24 08:31:03;;;;;;;;;;;13.40;99.90;;;;;;5045238;28;19936;-65
2023/05/24 08:33:34;;;;;;;;;;;13.50;99.90;;;;;;5043084;28;19925;-65
2023/05/24 08:36:06;;;;;;;;;;;13.40;99.90;;;;;;5044661;28;19925;-65
2023/05/24 08:38:38;;;;;;;;;;;13.50;99.90;;;;;;5045508;28;19928;-65
2023/05/24 08:41:10;;;;;;;;;;;13.50;99.90;;;;;;5048194;28;19925;-65
2023/05/24 08:43:37;;;;;;;;;;;13.50;99.90;;;;;;5050769;28;19931;-65
2023/05/24 08:46:10;;;;;;;;;;;13.60;99.90;;;;;;5034023;28;19925;-65
2023/05/24 08:48:45;;;;;;;;;;;13.60;99.90;;;;;;5034498;28;20381;-66
2023/05/24 08:51:16;;;;;;;;;;;13.70;99.90;;;;;;5037202;28;19956;-65
2023/05/24 08:53:49;;;;;;;;;;;13.90;99.90;;;;;;5037094;28;20466;-65
2023/05/24 08:56:22;;;;;;;;;;;14.10;99.90;;;;;;5038307;28;20689;-65
2023/05/24 08:58:49;;;;;;;;;;;14.20;99.90;;;;;;5040609;28;19935;-65
2023/05/24 09:01:22;;;;;;;;;;;14.20;99.90;;;;;;5039729;28;19933;-66
2023/05/24 09:03:50;;;;;;;;;;;14.20;99.90;;;;;;5041015;28;19929;-66
2023/05/24 09:06:24;;;;;;;;;;;14.30;99.90;;;;;;5045288;28;20635;-66
2023/05/24 09:08:57;;;;;;;;;;;14.30;99.90;;;;;;5038028;28;19929;-65
2023/05/24 09:11:30;;;;;;;;;;;14.30;99.90;;;;;;5042139;28;20473;-65
2023/05/24 09:14:02;;;;;;;;;;;14.30;99.90;;;;;;5034351;28;19932;-65
2023/05/24 09:16:34;;;;;;;;;;;14.30;99.90;;;;;;5047251;28;19925;-65
2023/05/24 09:19:02;;;;;;;;;;;14.30;99.90;;;;;;5038236;28;20027;-66
2023/05/24 09:21:33;;;;;;;;;;;14.30;99.90;;;;;;5043589;28;20304;-65
2023/05/24 09:24:10;;;;;;;;;;;14.20;99.90;;;;;;5042350;28;19925;-65
2023/05/24 09:26:42;;;;;;;;;;;14.20;99.90;;;;;;5046946;28;19929;-65
2023/05/24 09:29:14;;;;;;;;;;;14.00;99.90;;;;;;5043296;28;19936;-66
2023/05/24 09:31:45;;;;;;;;;;;14.00;99.90;;;;;;5036633;28;20385;-65
2023/05/24 09:34:17;;;;;;;;;;;14.00;99.90;;;;;;5034084;28;19929;-66
2023/05/24 09:36:45;;;;;;;;;;;14.00;99.90;;;;;;5046368;28;19928;-65
2023/05/24 09:39:12;;;;;;;;;;;14.10;99.90;;;;;;5050210;28;19932;-65
2023/05/24 09:41:54;;;;;;;;;;;14.10;99.90;;;;;;5048248;28;19935;-65
2023/05/24 09:44:29;;;;;;;;;;;14.10;99.90;;;;;;5036721;28;19925;-65
2023/05/24 09:47:03;;;;;;;;;;;14.20;99.90;;;;;;5030837;28;19925;-66
2023/05/24 09:49:30;;;;;;;;;;;14.30;99.90;;;;;;5037891;28;19925;-65
2023/05/24 09:52:02;;;;;;;;;;;14.30;99.90;;;;;;5036452;28;20418;-65
2023/05/24 09:54:34;;;;;;;;;;;14.40;99.90;;;;;;5039876;28;19932;-65
2023/05/24 09:57:06;;;;;;;;;;;14.50;99.90;;;;;;5041604;28;19950;-65
2023/05/24 09:59:39;;;;;;;;;;;14.40;99.90;;;;;;5050291;28;19928;-65
2023/05/24 10:02:11;;;;;;;;;;;14.50;99.90;;;;;;5050445;28;19925;-65
2023/05/24 10:04:38;;;;;;;;;;;14.60;99.90;;;;;;5045637;28;19976;-65
2023/05/24 10:07:06;;;;;;;;;;;14.50;99.90;;;;;;5038653;28;19972;-65
2023/05/24 10:09:33;;;;;;;;;;;14.50;99.90;;;;;;5037129;28;20021;-65
2023/05/24 10:12:06;;;;;;;;;;;14.60;99.90;;;;;;5042893;28;19925;-65
2023/05/24 10:14:38;;;;;;;;;;;14.50;99.90;;;;;;5043719;28;21594;-65
2023/05/24 10:17:10;;;;;;;;;;;14.50;99.90;;;;;;5043754;28;19971;-66
2023/05/24 10:19:42;;;;;;;;;;;14.60;99.90;;;;;;5037325;28;20328;-66
2023/05/24 10:22:10;;;;;;;;;;;14.80;99.90;;;;;;5034423;28;19925;-66
2023/05/24 10:24:45;;;;;;;;;;;14.80;99.90;;;;;;5038124;28;19933;-65
2023/05/24 10:27:18;;;;;;;;;;;15.00;99.90;;;;;;5039323;28;20297;-65
2023/05/24 10:30:00;;;;;;;;;;;15.00;99.90;;;;;;5047548;28;20016;-65
2023/05/24 10:32:34;;;;;;;;;;;15.10;99.90;;;;;;5037423;28;19939;-66
2023/05/24 10:35:06;;;;;;;;;;;15.10;99.90;;;;;;5037402;28;19956;-65
2023/05/24 10:37:38;;;;;;;;;;;14.90;99.90;;;;;;5043179;28;19976;-66
2023/05/24 10:40:18;;;;;;;;;;;14.80;99.90;;;;;;5039380;28;20377;-65
2023/05/24 10:42:51;;;;;;;;;;;14.80;99.90;;;;;;5041251;28;19925;-65
2023/05/24 10:45:23;;;;;;;;;;;14.80;99.90;;;;;;5035828;28;19934;-65
2023/05/24 10:47:55;;;;;;;;;;;15.00;99.90;;;;;;5036779;28;19931;-65
2023/05/24 10:50:22;;;;;;;;;;;15.10;99.90;;;;;;5031545;28;19933;-65
2023/05/24 10:53:09;;;;;;;;;;;15.10;99.90;;;;;;5039480;28;19929;-65
2023/05/24 10:55:50;;;;;;;;;;;15.20;99.90;;;;;;5039362;28;19948;-65
2023/05/24 10:58:26;;;;;;;;;;;15.20;99.90;;;;;;5035676;28;19948;-65
2023/05/24 11:00:57;;;;;;;;;;;15.30;99.90;;;;;;5046056;28;20459;-65
2023/05/24 11:03:32;;;;;;;;;;;15.60;99.90;;;;;;5039462;28;20428;-65
2023/05/24 11:06:04;;;;;;;;;;;15.60;99.90;;;;;;5039351;28;19925;-66
2023/05/24 11:08:42;;;;;;;;;;;15.60;99.90;;;;;;5045969;28;19935;-65
2023/05/24 11:11:10;;;;;;;;;;;15.80;99.90;;;;;;5039898;28;19955;-65
2023/05/24 11:13:42;;;;;;;;;;;15.60;99.90;;;;;;5035683;28;20011;-65
2023/05/24 11:16:29;;;;;;;;;;;15.60;99.90;;;;;;5033883;28;19925;-65
2023/05/24 11:18:56;;;;;;;;;;;15.50;99.90;;;;;;5045473;28;20312;-65
2023/05/24 11:21:28;;;;;;;;;;;15.50;99.90;;;;;;5043887;28;19940;-65
2023/05/24 11:24:00;;;;;;;;;;;15.60;99.90;;;;;;5044558;28;19931;-65
2023/05/24 11:26:27;;;;;;;;;;;15.80;99.90;;;;;;5049176;28;19932;-65
2023/05/24 11:29:00;;;;;;;;;;;15.90;99.90;;;;;;5044467;28;20016;-65
2023/05/24 11:31:32;;;;;;;;;;;16.10;99.90;;;;;;5045648;28;20024;-65
2023/05/24 11:34:08;;;;;;;;;;;16.20;99.90;;;;;;5025719;28;20290;-65
2023/05/24 11:36:41;;;;;;;;;;;16.20;99.90;;;;;;5045824;28;19924;-65
2023/05/24 11:39:13;;;;;;;;;;;16.40;99.90;;;;;;5034948;28;20380;-65
2023/05/24 11:41:46;;;;;;;;;;;16.40;99.90;;;;;;5043070;28;19925;-65
2023/05/24 11:44:15;;;;;;;;;;;16.60;99.90;;;;;;5062056;28;20015;-66
2023/05/24 11:46:47;;;;;;;;;;;16.40;99.90;;;;;;5038440;28;19929;-65
2023/05/24 11:49:15;;;;;;;;;;;16.50;99.90;;;;;;5039831;28;19925;-65
2023/05/24 11:51:46;;;;;;;;;;;16.60;99.90;;;;;;5042735;28;20377;-65
2023/05/24 11:54:18;;;;;;;;;;;16.70;99.90;;;;;;5044468;28;20360;-66
2023/05/24 11:56:46;;;;;;;;;;;16.90;99.90;;;;;;5044791;28;19926;-65
2023/05/24 11:59:27;;;;;;;;;;;17.10;99.90;;;;;;5046915;28;19925;-65
2023/05/24 12:02:00;;;;;;;;;;;17.20;99.90;;;;;;5037112;28;20385;-65
2023/05/24 12:04:28;;;;;;;;;;;17.40;99.90;;;;;;5034867;28;19937;-65
2023/05/24 12:07:00;;;;;;;;;;;17.40;99.90;;;;;;5032817;28;19925;-65
2023/05/24 12:09:32;;;;;;;;;;;17.20;99.90;;;;;;5046359;28;19979;-65
2023/05/24 12:12:06;;;;;;;;;;;17.00;99.90;;;;;;5037886;28;19925;-65
2023/05/24 12:14:38;;;;;;;;;;;16.90;99.90;;;;;;5028097;28;19932;-65
2023/05/24 12:17:15;;;;;;;;;;;16.90;99.90;;;;;;5050817;28;19935;-65
2023/05/24 12:19:42;;;;;;;;;;;16.90;99.90;;;;;;5049689;28;20012;-65
2023/05/24 12:22:09;;;;;;;;;;;17.00;99.90;;;;;;5050456;28;19951;-66
2023/05/24 12:24:41;;;;;;;;;;;16.90;99.90;;;;;;5047917;28;19929;-65
2023/05/24 12:27:13;;;;;;;;;;;16.90;99.90;;;;;;5049759;28;20031;-65
2023/05/24 12:29:44;;;;;;;;;;;16.90;99.90;;;;;;5034301;28;19933;-66
2023/05/24 12:32:11;;;;;;;;;;;17.00;99.90;;;;;;5034322;28;19936;-65
2023/05/24 12:34:42;;;;;;;;;;;17.00;99.90;;;;;;5033507;28;19956;-66
2023/05/24 12:37:10;;;;;;;;;;;17.10;99.90;;;;;;5038326;28;19933;-66
2023/05/24 12:39:42;;;;;;;;;;;17.20;99.90;;;;;;5047007;28;19929;-65
2023/05/24 12:42:11;;;;;;;;;;;17.00;99.90;;;;;;5047765;28;19924;-66
2023/05/24 12:44:38;;;;;;;;;;;17.00;99.90;;;;;;5051479;28;20003;-66
2023/05/24 12:47:10;;;;;;;;;;;17.10;99.90;;;;;;5045157;28;19956;-65
2023/05/24 12:49:42;;;;;;;;;;;17.00;99.90;;;;;;5040621;28;19929;-66
2023/05/24 12:52:10;;;;;;;;;;;17.00;99.90;;;;;;5036360;28;19929;-65
2023/05/24 12:54:42;;;;;;;;;;;16.80;99.90;;;;;;5044516;28;20027;-66
2023/05/24 12:57:10;;;;;;;;;;;16.70;99.90;;;;;;5051642;28;19929;-65
2023/05/24 12:59:36;;;;;;;;;;;16.70;99.90;;;;;;5041074;28;20522;-65
2023/05/24 13:02:09;;;;;;;;;;;16.90;99.90;;;;;;5036881;28;19925;-65
2023/05/24 13:04:36;;;;;;;;;;;17.00;99.90;;;;;;5046413;28;19925;-66
2023/05/24 13:07:08;;;;;;;;;;;17.00;99.90;;;;;;5041631;28;19929;-65
2023/05/24 13:09:40;;;;;;;;;;;17.10;99.90;;;;;;5042757;28;20020;-66
2023/05/24 13:12:12;;;;;;;;;;;16.90;99.90;;;;;;5039339;28;19931;-65
2023/05/24 13:14:44;;;;;;;;;;;16.80;99.90;;;;;;5042738;28;19939;-66
2023/05/24 13:17:10;;;;;;;;;;;16.80;99.90;;;;;;5045110;28;19975;-66
2023/05/24 13:19:42;;;;;;;;;;;16.80;99.90;;;;;;5033100;28;19931;-65
2023/05/24 13:22:09;;;;;;;;;;;17.00;99.90;;;;;;5033684;28;19936;-66
2023/05/24 13:24:36;;;;;;;;;;;17.00;99.90;;;;;;5035608;28;19967;-65
2023/05/24 13:27:08;;;;;;;;;;;17.00;99.90;;;;;;5036750;28;19960;-66
2023/05/24 13:29:35;;;;;;;;;;;17.00;99.90;;;;;;5037759;28;19925;-65
2023/05/24 13:32:07;;;;;;;;;;;16.80;99.90;;;;;;5046449;28;19951;-66
2023/05/24 13:34:39;;;;;;;;;;;16.70;99.90;;;;;;5046333;28;19937;-65
2023/05/24 13:37:10;;;;;;;;;;;16.60;99.90;;;;;;5041282;28;19932;-66
2023/05/24 13:39:42;;;;;;;;;;;16.70;99.90;;;;;;5035118;28;19937;-65
2023/05/24 13:42:14;;;;;;;;;;;16.40;99.90;;;;;;5036094;28;19953;-65
2023/05/24 13:44:42;;;;;;;;;;;16.30;99.90;;;;;;5049770;28;19925;-66
2023/05/24 13:47:18;;;;;;;;;;;16.20;99.90;;;;;;5037707;28;19949;-65
2023/05/24 13:49:49;;;;;;;;;;;16.20;99.90;;;;;;5039447;28;20419;-65
2023/05/24 13:52:21;;;;;;;;;;;16.10;99.90;;;;;;5040444;28;19925;-65
2023/05/24 13:54:48;;;;;;;;;;;16.20;99.90;;;;;;5042380;28;20020;-66
2023/05/24 13:57:15;;;;;;;;;;;16.30;99.90;;;;;;5041734;28;19931;-65
2023/05/24 13:59:46;;;;;;;;;;;16.30;99.90;;;;;;5041971;28;19932;-65
2023/05/24 14:02:13;;;;;;;;;;;16.10;99.90;;;;;;5047043;28;19929;-66
2023/05/24 14:04:45;;;;;;;;;;;15.80;99.90;;;;;;5024379;28;19929;-65
2023/05/24 14:07:16;;;;;;;;;;;15.70;99.90;;;;;;5048343;28;20301;-65
2023/05/24 14:09:48;;;;;;;;;;;15.40;99.90;;;;;;5042684;28;19933;-65
2023/05/24 14:12:15;;;;;;;;;;;15.10;99.90;;;;;;5030928;28;19929;-65
2023/05/24 14:14:47;;;;;;;;;;;15.10;99.90;;;;;;5037875;28;19947;-65
2023/05/24 14:17:19;;;;;;;;;;;15.20;99.90;;;;;;5046953;28;20704;-65
2023/05/24 14:19:51;;;;;;;;;;;15.30;99.90;;;;;;5049849;28;20425;-65
2023/05/24 14:22:24;;;;;;;;;;;15.30;99.90;;;;;;5038682;28;19964;-65
2023/05/24 14:24:56;;;;;;;;;;;15.10;99.90;;;;;;5040435;28;19929;-65
2023/05/24 14:27:28;;;;;;;;;;;15.00;99.90;;;;;;5037724;28;20270;-65
2023/05/24 14:29:54;;;;;;;;;;;14.90;99.90;;;;;;5036338;28;19951;-65
2023/05/24 14:32:26;;;;;;;;;;;14.90;99.90;;;;;;5035751;28;19925;-65
2023/05/24 14:34:53;;;;;;;;;;;14.70;99.90;;;;;;5035537;28;20304;-65
2023/05/24 14:37:24;;;;;;;;;;;14.60;99.90;;;;;;5033966;28;20382;-65
2023/05/24 14:39:56;;;;;;;;;;;14.70;99.90;;;;;;5034130;28;19932;-65